Time;durP1;ratioP1;P1;durP2;ratioP2;P2;SDS_P1;SDS_P2;PMS_P1;PMS_P2;Temp;Humidity;BMP_temperature;BMP_pressure;BME280_temperature;BME280_humidity;BME280_pressure;Samples;Min_cycle;Max_cycle;Signal;HPM_P1;HPM_P2
2023/11/23 00:00:48;;;;;;;43.88;21.45;;;;;;;;;;5103395;28;20024;-70
2023/11/23 00:03:15;;;;;;;38.95;20.27;;;;;;;;;;5103833;28;20047;-70
2023/11/23 00:05:41;;;;;;;43.08;22.17;;;;;;;;;;5103459;28;20024;-70
2023/11/23 00:08:08;;;;;;;43.30;21.17;;;;;;;;;;5102014;28;20024;-73
2023/11/23 00:10:33;;;;;;;45.72;20.33;;;0.10;99.90;;;;;;5103351;28;20177;-70
2023/11/23 00:12:59;;;;;;;40.53;20.25;;;;;;;;;;5101879;28;20047;-71
2023/11/23 00:15:26;;;;;;;37.40;19.63;;;;;;;;;;5103124;28;20283;-70
2023/11/23 00:17:52;;;;;;;42.28;19.60;;;0.10;99.90;;;;;;5103361;28;20034;-71
2023/11/23 00:20:18;;;;;;;43.55;20.52;;;;;;;;;;5103066;28;20244;-70
2023/11/23 00:22:44;;;;;;;42.13;20.38;;;0.20;99.90;;;;;;5103102;28;20052;-70
2023/11/23 00:25:11;;;;;;;40.15;20.20;;;;;;;;;;5102722;28;20066;-70
2023/11/23 00:27:38;;;;;;;36.30;18.85;;;0.00;99.90;;;;;;5085310;28;20096;-73
2023/11/23 00:30:04;;;;;;;41.08;20.20;;;;;;;;;;5102942;28;20087;-73
2023/11/23 00:32:30;;;;;;;41.00;21.17;;;;;;;;;;5102979;28;20016;-72
2023/11/23 00:34:55;;;;;;;41.17;18.75;;;-0.10;99.90;;;;;;5102763;28;20223;-73
2023/11/23 00:37:21;;;;;;;47.92;21.20;;;;;;;;;;5103229;28;20048;-74
2023/11/23 00:39:47;;;;;;;40.67;19.15;;;-0.10;99.90;;;;;;5103192;28;20012;-72
2023/11/23 00:42:13;;;;;;;40.70;19.98;;;-0.10;99.90;;;;;;5102679;28;20016;-71
2023/11/23 00:44:39;;;;;;;42.65;20.38;;;;;;;;;;5102714;28;20083;-73
2023/11/23 00:47:06;;;;;;;41.80;20.33;;;;;;;;;;5102787;28;20050;-72
2023/11/23 00:49:33;;;;;;;44.85;21.88;;;-0.20;99.90;;;;;;5102609;28;20032;-72
2023/11/23 00:51:59;;;;;;;40.20;19.50;;;-0.20;99.90;;;;;;5102771;28;20012;-71
2023/11/23 00:54:27;;;;;;;39.90;19.08;;;;;;;;;;5102744;28;20031;-73
2023/11/23 00:56:53;;;;;;;40.67;20.23;;;-0.40;99.90;;;;;;5102341;28;20364;-70
2023/11/23 00:59:19;;;;;;;33.33;17.05;;;;;;;;;;5102342;28;20090;-72
2023/11/23 01:01:45;;;;;;;43.67;20.77;;;-0.30;99.90;;;;;;5102194;28;20008;-72
2023/11/23 01:04:11;;;;;;;39.90;20.13;;;;;;;;;;5102379;28;20103;-71
2023/11/23 01:06:37;;;;;;;41.45;19.20;;;;;;;;;;5102506;28;20075;-70
2023/11/23 01:09:03;;;;;;;39.13;19.02;;;-0.10;99.90;;;;;;5102054;28;20034;-72
2023/11/23 01:11:29;;;;;;;37.33;19.33;;;-0.30;99.90;;;;;;5102301;28;20253;-70
2023/11/23 01:13:55;;;;;;;36.35;18.67;;;;;;;;;;5101753;28;20032;-70
2023/11/23 01:16:21;;;;;;;40.92;19.05;;;-0.30;99.90;;;;;;5102208;28;20027;-73
2023/11/23 01:18:46;;;;;;;42.70;19.85;;;;;;;;;;5101811;28;20388;-73
2023/11/23 01:21:13;;;;;;;42.38;20.00;;;;;;;;;;5102515;28;20024;-75
2023/11/23 01:23:39;;;;;;;40.88;20.83;;;;;;;;;;5101842;28;20065;-70
2023/11/23 01:26:05;;;;;;;41.85;19.75;;;;;;;;;;5101718;28;20075;-73
2023/11/23 01:28:32;;;;;;;43.20;19.40;;;-0.10;99.90;;;;;;5101838;28;20098;-69
2023/11/23 01:30:58;;;;;;;43.33;20.70;;;;;;;;;;5101796;28;20024;-73
2023/11/23 01:33:23;;;;;;;39.97;19.00;;;-0.30;99.90;;;;;;5101865;28;20039;-72
2023/11/23 01:35:49;;;;;;;37.85;18.73;;;-0.20;99.90;;;;;;5101857;28;20020;-73
2023/11/23 01:38:15;;;;;;;41.47;19.27;;;-0.40;99.90;;;;;;5100391;28;20030;-70
2023/11/23 01:40:40;;;;;;;42.33;19.85;;;-0.60;99.90;;;;;;5101873;28;20027;-71
2023/11/23 01:43:08;;;;;;;41.83;20.17;;;-0.40;99.90;;;;;;5101704;28;20422;-72
2023/11/23 01:45:33;;;;;;;40.80;19.63;;;-0.30;99.90;;;;;;5101785;28;20032;-70
2023/11/23 01:48:01;;;;;;;41.95;19.92;;;-0.30;99.50;;;;;;5101362;28;20065;-71
2023/11/23 01:50:30;;;;;;;39.65;19.20;;;-0.30;99.40;;;;;;5100927;28;20031;-71
2023/11/23 01:52:55;;;;;;;43.40;21.30;;;-0.60;99.90;;;;;;5101145;28;20043;-73
2023/11/23 01:55:21;;;;;;;39.72;18.33;;;;;;;;;;5101127;28;20062;-71
2023/11/23 01:57:53;;;;;;;41.80;20.77;;;-0.20;99.90;;;;;;5101317;28;20054;-71
2023/11/23 02:00:19;;;;;;;39.40;18.70;;;;;;;;;;5100992;28;20258;-70
2023/11/23 02:02:45;;;;;;;39.15;19.17;;;-0.20;99.90;;;;;;5101006;28;20096;-71
2023/11/23 02:05:12;;;;;;;41.58;19.25;;;-0.30;99.90;;;;;;5101038;28;20039;-70
2023/11/23 02:07:38;;;;;;;39.05;18.77;;;-0.20;99.90;;;;;;5085315;28;20068;-71
2023/11/23 02:10:04;;;;;;;41.65;19.90;;;-0.30;99.50;;;;;;5100112;28;20039;-70
2023/11/23 02:12:30;;;;;;;42.08;19.05;;;-0.40;99.90;;;;;;5082253;28;20154;-70
2023/11/23 02:14:58;;;;;;;37.15;17.80;;;-0.30;99.90;;;;;;5080868;28;20020;-71
2023/11/23 02:17:24;;;;;;;37.13;17.60;;;-0.30;99.90;;;;;;5080595;28;20020;-70
2023/11/23 02:19:51;;;;;;;39.42;18.67;;;0.10;99.90;;;;;;5080492;28;20028;-70
2023/11/23 02:22:17;;;;;;;40.25;19.88;;;;;;;;;;5080771;28;20047;-70
2023/11/23 02:24:43;;;;;;;34.72;17.83;;;-0.30;99.50;;;;;;5080740;28;20031;-70
2023/11/23 02:27:10;;;;;;;39.25;19.75;;;-0.30;99.60;;;;;;5080242;28;20090;-70
2023/11/23 02:29:37;;;;;;;41.63;19.13;;;-0.30;99.90;;;;;;5080404;28;20017;-71
2023/11/23 02:32:09;;;;;;;39.90;18.85;;;-0.30;99.60;;;;;;5080718;28;20091;-70
2023/11/23 02:34:36;;;;;;;41.20;19.02;;;-0.30;99.90;;;;;;5080541;28;20099;-70
2023/11/23 02:37:02;;;;;;;44.60;21.50;;;-0.30;99.90;;;;;;5080611;28;20031;-70
2023/11/23 02:39:28;;;;;;;38.03;18.52;;;-0.40;99.90;;;;;;5080303;28;20043;-70
2023/11/23 02:41:55;;;;;;;36.45;18.80;;;;;;;;;;5080714;28;20554;-70
2023/11/23 02:44:20;;;;;;;39.30;19.20;;;-0.30;99.90;;;;;;5080556;28;20095;-71
2023/11/23 02:46:47;;;;;;;40.92;18.85;;;;;;;;;;5080464;28;20021;-70
2023/11/23 02:49:14;;;;;;;38.40;19.58;;;;;;;;;;5080705;28;20025;-71
2023/11/23 02:51:40;;;;;;;39.60;18.67;;;-0.40;99.90;;;;;;5080311;28;20091;-70
2023/11/23 02:54:06;;;;;;;42.88;20.25;;;-0.10;99.90;;;;;;5078632;28;20037;-70
2023/11/23 02:56:32;;;;;;;40.75;19.15;;;0.10;99.90;;;;;;5080404;28;20028;-70
2023/11/23 02:58:57;;;;;;;42.50;20.10;;;-0.40;99.90;;;;;;5080337;28;20216;-73
2023/11/23 03:01:23;;;;;;;45.92;20.60;;;-0.40;99.90;;;;;;5080640;28;20028;-72
2023/11/23 03:03:49;;;;;;;42.05;20.02;;;;;;;;;;5082671;28;20036;-72
2023/11/23 03:06:15;;;;;;;40.80;18.13;;;;;;;;;;5084297;28;20051;-70
2023/11/23 03:08:42;;;;;;;46.47;21.45;;;-0.40;99.90;;;;;;5084146;28;20051;-70
2023/11/23 03:11:20;;;;;;;41.03;18.65;;;-0.40;99.90;;;;;;5075700;28;20070;-70
2023/11/23 03:13:48;;;;;;;43.55;19.67;;;-0.40;99.90;;;;;;5064192;28;20130;-70
2023/11/23 03:16:14;;;;;;;42.75;19.50;;;-0.30;99.90;;;;;;5064133;28;20066;-71
2023/11/23 03:18:40;;;;;;;36.28;19.23;;;;;;;;;;5063886;28;20255;-71
2023/11/23 03:21:06;;;;;;;39.70;18.85;;;-0.40;99.90;;;;;;5063860;28;20344;-70
2023/11/23 03:23:32;;;;;;;37.42;18.00;;;0.00;99.90;;;;;;5063849;28;20044;-71
2023/11/23 03:25:58;;;;;;;38.60;19.20;;;-0.40;99.90;;;;;;5063844;28;20041;-72
2023/11/23 03:28:24;;;;;;;43.92;18.52;;;-0.30;99.90;;;;;;5064039;28;20100;-71
2023/11/23 03:30:50;;;;;;;39.92;20.33;;;-0.20;99.90;;;;;;5063619;28;20025;-71
2023/11/23 03:33:16;;;;;;;41.42;20.52;;;;;;;;;;5063553;28;20033;-74
2023/11/23 03:35:41;;;;;;;38.50;19.10;;;0.00;99.90;;;;;;5063659;28;20055;-70
2023/11/23 03:38:07;;;;;;;40.90;18.75;;;-0.30;99.90;;;;;;5063519;28;20239;-71
2023/11/23 03:40:33;;;;;;;39.00;18.25;;;-0.40;99.90;;;;;;5063778;28;20059;-71
2023/11/23 03:42:59;;;;;;;36.90;18.85;;;;;;;;;;5063545;28;20331;-72
2023/11/23 03:45:25;;;;;;;39.75;17.75;;;-0.30;99.90;;;;;;5062319;28;20024;-74
2023/11/23 03:47:54;;;;;;;36.53;17.30;;;;;;;;;;5063456;28;20029;-73
2023/11/23 03:50:20;;;;;;;40.67;19.00;;;-0.40;99.90;;;;;;5063598;28;20263;-73
2023/11/23 03:52:46;;;;;;;41.08;19.70;;;;;;;;;;5063556;28;20033;-73
2023/11/23 03:55:13;;;;;;;38.72;18.02;;;;;;;;;;5063518;28;20044;-71
2023/11/23 03:57:39;;;;;;;37.70;18.38;;;-0.30;99.90;;;;;;5063238;28;20017;-72
2023/11/23 04:00:06;;;;;;;38.22;18.23;;;-0.40;99.80;;;;;;5063148;28;20317;-72
2023/11/23 04:02:32;;;;;;;38.10;17.90;;;;;;;;;;5062132;28;20374;-71
2023/11/23 04:04:58;;;;;;;36.38;17.65;;;-0.30;99.90;;;;;;5063186;28;20024;-70
2023/11/23 04:07:24;;;;;;;35.25;17.38;;;-0.30;99.90;;;;;;5061954;28;20021;-71
2023/11/23 04:09:50;;;;;;;41.30;18.70;;;;;;;;;;5062002;28;20024;-71
2023/11/23 04:12:16;;;;;;;39.78;18.20;;;;;;;;;;5063077;28;20021;-70
2023/11/23 04:14:42;;;;;;;38.60;17.65;;;-0.20;99.90;;;;;;5062859;28;20107;-70
2023/11/23 04:17:07;;;;;;;35.28;18.55;;;-0.20;99.90;;;;;;5062824;28;20016;-70
2023/11/23 04:19:34;;;;;;;45.33;17.38;;;;;;;;;;5061804;28;20316;-70
2023/11/23 04:21:59;;;;;;;36.22;17.27;;;-0.40;99.90;;;;;;5062738;28;20028;-70
2023/11/23 04:24:27;;;;;;;38.08;18.30;;;-0.30;99.80;;;;;;5062857;28;20033;-70
2023/11/23 04:26:53;;;;;;;41.25;19.67;;;-0.40;99.90;;;;;;5061700;28;20049;-72
2023/11/23 04:29:19;;;;;;;40.53;19.02;;;-0.30;99.90;;;;;;5061657;28;20035;-73
2023/11/23 04:31:45;;;;;;;38.72;18.20;;;;;;;;;;5060394;28;20028;-70
2023/11/23 04:34:11;;;;;;;33.72;17.65;;;-0.50;99.90;;;;;;5061370;28;20316;-70
2023/11/23 04:36:37;;;;;;;39.78;19.98;;;;;;;;;;5061810;28;20096;-71
2023/11/23 04:39:04;;;;;;;40.70;18.02;;;-0.40;99.90;;;;;;5061572;28;20324;-71
2023/11/23 04:41:30;;;;;;;44.10;20.45;;;-0.30;99.90;;;;;;5061350;28;20025;-71
2023/11/23 04:43:56;;;;;;;39.55;18.05;;;;;;;;;;5061582;28;20032;-71
2023/11/23 04:46:22;;;;;;;41.10;19.40;;;-0.50;99.90;;;;;;5061491;28;20028;-72
2023/11/23 04:48:48;;;;;;;42.05;19.05;;;-0.40;99.90;;;;;;5061435;28;20029;-70
2023/11/23 04:51:16;;;;;;;39.40;18.25;;;;;;;;;;5065288;28;20070;-70
2023/11/23 04:53:42;;;;;;;41.47;19.02;;;;;;;;;;5079954;28;20049;-71
2023/11/23 04:56:08;;;;;;;43.38;19.95;;;-0.60;99.90;;;;;;5081313;28;20056;-72
2023/11/23 04:58:34;;;;;;;38.92;18.35;;;-0.40;99.90;;;;;;5081466;28;20023;-70
2023/11/23 05:01:00;;;;;;;43.53;19.00;;;-0.40;99.90;;;;;;5081421;28;20017;-71
2023/11/23 05:03:28;;;;;;;38.65;17.92;;;-0.40;99.90;;;;;;5085284;28;20028;-71
2023/11/23 05:05:54;;;;;;;39.58;18.08;;;;;;;;;;5088160;28;20031;-70
2023/11/23 05:08:21;;;;;;;37.88;17.23;;;;;;;;;;5089065;28;20028;-71
2023/11/23 05:10:47;;;;;;;38.55;18.63;;;;;;;;;;5083637;28;20035;-70
2023/11/23 05:13:13;;;;;;;36.78;17.33;;;-0.50;99.90;;;;;;5087359;28;20024;-70
2023/11/23 05:15:39;;;;;;;37.50;18.17;;;-0.90;99.90;;;;;;5084929;28;20033;-72
2023/11/23 05:18:05;;;;;;;37.35;18.08;;;-0.60;99.90;;;;;;5081156;28;20027;-69
2023/11/23 05:20:32;;;;;;;38.30;17.40;;;;;;;;;;5080996;28;20028;-70
2023/11/23 05:22:58;;;;;;;37.33;17.23;;;-0.90;99.90;;;;;;5080952;28;20036;-70
2023/11/23 05:25:24;;;;;;;41.10;17.75;;;-0.70;99.90;;;;;;5039998;28;1144611;-72
2023/11/23 05:27:50;;;;;;;38.90;18.08;;;-0.60;99.90;;;;;;5083942;28;20162;-71
2023/11/23 05:30:17;;;;;;;36.38;16.65;;;-0.60;99.90;;;;;;5090190;28;20267;-71
2023/11/23 05:32:43;;;;;;;40.53;17.65;;;-0.60;99.90;;;;;;5081072;28;20028;-71
2023/11/23 05:35:08;;;;;;;37.60;17.83;;;-0.70;99.90;;;;;;5092831;28;20031;-71
2023/11/23 05:37:34;;;;;;;39.45;17.90;;;-0.50;99.90;;;;;;5061304;28;20021;-71
2023/11/23 05:40:00;;;;;;;35.55;16.45;;;-0.60;99.90;;;;;;5061320;28;20032;-71
2023/11/23 05:42:26;;;;;;;31.90;15.55;;;-0.60;99.90;;;;;;5060675;28;20017;-72
2023/11/23 05:44:52;;;;;;;40.65;17.45;;;-0.60;99.90;;;;;;5060838;28;20033;-72
2023/11/23 05:47:18;;;;;;;41.85;18.30;;;-0.70;99.90;;;;;;5061284;28;20021;-72
2023/11/23 05:49:44;;;;;;;39.17;18.00;;;;;;;;;;5061293;28;20028;-72
2023/11/23 05:52:10;;;;;;;36.33;16.40;;;-0.90;99.90;;;;;;5061016;28;20013;-72
2023/11/23 05:54:37;;;;;;;41.00;18.38;;;-0.60;99.90;;;;;;5061244;28;20028;-71
2023/11/23 05:57:03;;;;;;;43.28;18.48;;;-0.70;99.90;;;;;;5061125;28;20079;-73
2023/11/23 05:59:30;;;;;;;36.08;17.05;;;;;;;;;;5061263;28;20076;-73
2023/11/23 06:01:56;;;;;;;36.85;17.52;;;;;;;;;;5070352;28;20027;-73
2023/11/23 06:04:22;;;;;;;40.08;17.77;;;-0.70;99.90;;;;;;5090442;28;20289;-75
2023/11/23 06:06:49;;;;;;;37.25;16.25;;;;;;;;;;5075840;28;20074;-73
2023/11/23 06:09:15;;;;;;;41.55;18.13;;;;;;;;;;5060958;28;20055;-72
2023/11/23 06:11:43;;;;;;;36.92;17.90;;;;;;;;;;5060447;28;20252;-72
2023/11/23 06:14:09;;;;;;;40.80;18.70;;;-0.90;99.90;;;;;;5060318;28;20029;-72
2023/11/23 06:16:35;;;;;;;39.00;17.27;;;;;;;;;;5059446;28;20083;-72
2023/11/23 06:19:01;;;;;;;41.92;18.02;;;;;;;;;;5060636;28;20032;-71
2023/11/23 06:21:28;;;;;;;36.13;17.13;;;;;;;;;;5060786;28;20028;-71
2023/11/23 06:23:54;;;;;;;40.65;17.92;;;-0.70;99.90;;;;;;5079955;28;20059;-72
2023/11/23 06:26:20;;;;;;;40.05;18.17;;;;;;;;;;5080304;28;20064;-72
2023/11/23 06:28:47;;;;;;;42.50;18.73;;;-0.60;99.90;;;;;;5080141;28;20020;-71
2023/11/23 06:31:12;;;;;;;41.35;19.13;;;-0.60;99.90;;;;;;5080423;28;20020;-71
2023/11/23 06:33:38;;;;;;;43.95;18.73;;;;;;;;;;5080370;28;20102;-72
2023/11/23 06:36:05;;;;;;;45.20;18.80;;;;;;;;;;5080614;28;20032;-71
2023/11/23 06:38:32;;;;;;;42.53;19.20;;;-0.40;99.90;;;;;;5080566;28;20060;-71
2023/11/23 06:40:59;;;;;;;45.72;20.00;;;-0.40;99.90;;;;;;5080621;28;20024;-71
2023/11/23 06:43:25;;;;;;;45.80;19.42;;;-0.60;99.90;;;;;;5080188;28;20024;-71
2023/11/23 06:45:51;;;;;;;40.60;18.10;;;;;;;;;;5080576;28;20024;-71
2023/11/23 06:48:17;;;;;;;44.42;18.52;;;;;;;;;;5080291;28;20434;-71
2023/11/23 06:50:44;;;;;;;39.22;19.63;;;;;;;;;;5078954;28;20032;-72
2023/11/23 06:53:10;;;;;;;44.67;19.95;;;;;;;;;;5080338;28;20037;-73
2023/11/23 06:55:35;;;;;;;38.80;18.17;;;-0.30;99.90;;;;;;5080063;28;20020;-71
2023/11/23 06:58:01;;;;;;;41.80;18.05;;;;;;;;;;5080525;28;20021;-71
2023/11/23 07:00:27;;;;;;;45.55;20.58;;;;;;;;;;5080400;28;20027;-71
2023/11/23 07:02:56;;;;;;;43.92;21.27;;;-0.20;99.90;;;;;;5080139;28;20028;-70
2023/11/23 07:05:26;;;;;;;39.92;18.13;;;-0.10;99.90;;;;;;5080123;28;20095;-70
2023/11/23 07:07:53;;;;;;;40.35;18.55;;;-0.30;99.90;;;;;;5080251;28;20035;-70
2023/11/23 07:10:20;;;;;;;41.97;19.45;;;;;;;;;;5080184;28;20349;-72
2023/11/23 07:12:46;;;;;;;44.45;20.58;;;0.00;99.90;;;;;;5080304;28;20021;-70
2023/11/23 07:15:13;;;;;;;43.30;20.15;;;-0.10;99.90;;;;;;5080157;28;20027;-69
2023/11/23 07:17:40;;;;;;;44.90;20.52;;;0.20;99.90;;;;;;5079940;28;20061;-70
2023/11/23 07:20:11;;;;;;;42.55;18.95;;;0.30;99.90;;;;;;5078683;28;20082;-69
2023/11/23 07:22:37;;;;;;;40.47;18.33;;;0.30;99.90;;;;;;5080269;28;20028;-70
2023/11/23 07:25:03;;;;;;;41.65;20.52;;;0.60;99.90;;;;;;5078409;28;20028;-70
2023/11/23 07:27:30;;;;;;;42.75;20.85;;;;;;;;;;5080184;28;20043;-70
2023/11/23 07:29:55;;;;;;;43.20;20.30;;;0.60;99.90;;;;;;5080177;28;20036;-70
2023/11/23 07:32:21;;;;;;;44.15;20.83;;;1.00;99.90;;;;;;5080234;28;20047;-70
2023/11/23 07:34:47;;;;;;;38.22;18.25;;;0.90;99.90;;;;;;5080322;28;20381;-71
2023/11/23 07:37:14;;;;;;;40.35;19.95;;;0.80;99.90;;;;;;5080245;28;20339;-70
2023/11/23 07:39:39;;;;;;;46.65;21.27;;;1.00;99.90;;;;;;5080031;28;20016;-71
2023/11/23 07:42:05;;;;;;;40.22;19.17;;;;;;;;;;5079801;28;20087;-70
2023/11/23 07:44:33;;;;;;;45.25;18.88;;;1.10;99.90;;;;;;5080095;28;20021;-71
2023/11/23 07:46:59;;;;;;;45.45;19.70;;;1.10;99.90;;;;;;5078479;28;20016;-71
2023/11/23 07:49:25;;;;;;;44.65;20.67;;;;;;;;;;5081048;28;20095;-72
2023/11/23 07:51:51;;;;;;;44.63;20.63;;;1.20;99.90;;;;;;5083429;28;20320;-71
2023/11/23 07:54:17;;;;;;;44.30;20.08;;;1.60;99.90;;;;;;5083467;28;20089;-72
2023/11/23 07:56:43;;;;;;;48.25;21.08;;;;;;;;;;5083518;28;20309;-71
2023/11/23 07:59:09;;;;;;;43.60;21.13;;;1.30;99.90;;;;;;5083187;28;20047;-71
2023/11/23 08:01:35;;;;;;;45.65;22.35;;;;;;;;;;5082082;28;20027;-71
2023/11/23 08:04:03;;;;;;;46.22;23.10;;;;;;;;;;5082978;28;20038;-71
2023/11/23 08:06:32;;;;;;;47.63;22.40;;;1.80;99.90;;;;;;5083156;28;20275;-70
2023/11/23 08:08:57;;;;;;;41.17;20.35;;;1.80;99.90;;;;;;5083027;28;20572;-69
2023/11/23 08:11:23;;;;;;;48.97;23.45;;;2.00;99.90;;;;;;5083384;28;20032;-69
2023/11/23 08:13:49;;;;;;;41.25;19.95;;;;;;;;;;5082876;28;20036;-70
2023/11/23 08:16:15;;;;;;;48.85;22.67;;;2.70;99.90;;;;;;5082903;28;20019;-71
2023/11/23 08:18:41;;;;;;;47.25;21.17;;;;;;;;;;5082928;28;20048;-71
2023/11/23 08:21:07;;;;;;;46.17;21.58;;;;;;;;;;5082594;28;20309;-69
2023/11/23 08:23:33;;;;;;;51.97;24.48;;;;;;;;;;5083196;28;20211;-69
2023/11/23 08:26:00;;;;;;;48.65;22.55;;;;;;;;;;5082583;28;20344;-69
2023/11/23 08:28:26;;;;;;;49.33;22.45;;;;;;;;;;5083085;28;20056;-69
2023/11/23 08:30:52;;;;;;;47.25;22.45;;;3.20;99.70;;;;;;5082839;28;20220;-69
2023/11/23 08:33:18;;;;;;;45.08;20.95;;;;;;;;;;5081706;28;20044;-70
2023/11/23 08:35:44;;;;;;;43.80;22.10;;;3.50;99.90;;;;;;5082705;28;20017;-70
2023/11/23 08:38:13;;;;;;;38.50;20.05;;;3.50;99.90;;;;;;5082740;28;20031;-69
2023/11/23 08:40:39;;;;;;;40.40;18.80;;;;;;;;;;5082997;28;20278;-70
2023/11/23 08:43:08;;;;;;;44.15;22.52;;;;;;;;;;5082692;28;20569;-70
2023/11/23 08:45:34;;;;;;;40.17;21.65;;;3.60;95.50;;;;;;5082812;28;20091;-70
2023/11/23 08:48:00;;;;;;;43.15;22.13;;;3.80;99.00;;;;;;5082737;28;20280;-69
2023/11/23 08:50:27;;;;;;;39.20;22.33;;;3.70;99.90;;;;;;5082567;28;20016;-71
2023/11/23 08:52:57;;;;;;;39.15;19.98;;;4.10;99.90;;;;;;5082436;28;20013;-71
2023/11/23 08:55:23;;;;;;;43.13;21.40;;;;;;;;;;5082312;28;20032;-71
2023/11/23 08:57:51;;;;;;;39.88;21.08;;;;;;;;;;5081794;28;20025;-71
2023/11/23 09:00:23;;;;;;;39.67;21.30;;;3.70;96.70;;;;;;5081158;28;20034;-71
2023/11/23 09:02:50;;;;;;;41.88;20.45;;;3.70;95.80;;;;;;5082116;28;20035;-71
2023/11/23 09:05:16;;;;;;;42.58;22.58;;;;;;;;;;5081453;28;20017;-69
2023/11/23 09:07:43;;;;;;;44.40;21.05;;;;;;;;;;5081976;28;20455;-70
2023/11/23 09:10:09;;;;;;;37.05;19.88;;;3.70;99.90;;;;;;5081886;28;20017;-71
2023/11/23 09:12:36;;;;;;;43.75;21.65;;;4.20;96.90;;;;;;5081712;28;20028;-70
2023/11/23 09:15:04;;;;;;;44.70;20.95;;;3.90;95.10;;;;;;5082201;28;20028;-70
2023/11/23 09:17:33;;;;;;;44.10;22.52;;;3.70;99.90;;;;;;5081684;28;20024;-70
2023/11/23 09:19:58;;;;;;;44.13;22.15;;;3.50;99.90;;;;;;5081566;28;20216;-70
2023/11/23 09:22:25;;;;;;;41.35;21.60;;;;;;;;;;5081685;28;20078;-70
2023/11/23 09:24:51;;;;;;;48.58;24.23;;;4.20;99.90;;;;;;5081781;28;20013;-71
2023/11/23 09:27:17;;;;;;;48.22;24.17;;;3.50;96.80;;;;;;5081520;28;20115;-70
2023/11/23 09:29:43;;;;;;;47.63;23.42;;;;;;;;;;5081487;28;20202;-72
2023/11/23 09:32:09;;;;;;;51.03;25.05;;;3.50;99.90;;;;;;5081671;28;20024;-70
2023/11/23 09:34:35;;;;;;;48.78;23.80;;;;;;;;;;5080155;28;20284;-70
2023/11/23 09:37:01;;;;;;;44.33;23.63;;;3.50;99.90;;;;;;5080055;28;20335;-70
2023/11/23 09:39:29;;;;;;;46.40;22.90;;;3.20;94.40;;;;;;5081391;28;20029;-71
2023/11/23 09:41:58;;;;;;;47.72;24.38;;;3.20;95.30;;;;;;5081305;28;20280;-71
2023/11/23 09:44:28;;;;;;;49.97;22.73;;;3.30;93.90;;;;;;5081293;28;20387;-69
2023/11/23 09:46:55;;;;;;;48.25;24.17;;;3.30;94.00;;;;;;5081468;28;20272;-70
2023/11/23 09:49:22;;;;;;;42.08;22.77;;;;;;;;;;5081089;28;20059;-69
2023/11/23 09:51:55;;;;;;;49.83;23.50;;;3.50;99.90;;;;;;5081015;28;20308;-70
2023/11/23 09:54:21;;;;;;;40.88;20.60;;;;;;;;;;5080911;28;20070;-70
2023/11/23 09:56:47;;;;;;;44.42;22.42;;;3.30;99.50;;;;;;5081044;28;20028;-71
2023/11/23 09:59:13;;;;;;;43.88;21.52;;;3.20;99.90;;;;;;5081202;28;20376;-70
2023/11/23 10:01:47;;;;;;;42.85;20.60;;;3.00;97.50;;;;;;5080852;28;20020;-70
2023/11/23 10:04:13;;;;;;;48.25;22.10;;;3.40;99.90;;;;;;5080042;28;20017;-70
2023/11/23 10:06:42;;;;;;;39.00;20.25;;;3.20;99.90;;;;;;5081057;28;20024;-71
2023/11/23 10:09:09;;;;;;;48.83;21.90;;;3.10;99.90;;;;;;5080939;28;20063;-71
2023/11/23 10:11:36;;;;;;;42.13;21.38;;;;;;;;;;5080714;28;20264;-70
2023/11/23 10:14:02;;;;;;;42.45;21.38;;;3.50;97.10;;;;;;5080769;28;20032;-71
2023/11/23 10:16:31;;;;;;;42.20;20.60;;;3.90;99.90;;;;;;5080972;28;20020;-71
2023/11/23 10:18:57;;;;;;;44.40;21.10;;;4.10;99.90;;;;;;5081080;28;20080;-70
2023/11/23 10:21:23;;;;;;;43.20;22.00;;;4.00;99.90;;;;;;5080852;28;20020;-70
2023/11/23 10:23:50;;;;;;;45.22;22.90;;;;;;;;;;5080872;28;20211;-70
2023/11/23 10:26:16;;;;;;;38.15;19.60;;;4.80;99.90;;;;;;5079275;28;20329;-70
2023/11/23 10:28:42;;;;;;;27.98;13.85;;;;;;;;;;5080612;28;20033;-69
2023/11/23 10:31:08;;;;;;;21.30;11.10;;;5.40;99.00;;;;;;5079542;28;20016;-70
2023/11/23 10:33:37;;;;;;;15.23;9.00;;;5.60;91.30;;;;;;5080470;28;20150;-69
2023/11/23 10:36:05;;;;;;;13.68;7.40;;;5.70;96.10;;;;;;5083199;28;20033;-70
2023/11/23 10:38:40;;;;;;;10.45;6.18;;;6.30;92.10;;;;;;5084227;28;20024;-72
2023/11/23 10:41:07;;;;;;;12.68;7.68;;;6.90;89.50;;;;;;5083827;28;20024;-71
2023/11/23 10:43:37;;;;;;;11.57;7.07;;;6.40;82.70;;;;;;5084582;28;20030;-70
2023/11/23 10:46:13;;;;;;;12.13;6.53;;;6.50;93.20;;;;;;5084432;28;20020;-71
2023/11/23 10:48:39;;;;;;;13.45;8.07;;;6.50;92.80;;;;;;5081818;28;20027;-70
2023/11/23 10:51:06;;;;;;;14.25;8.05;;;6.70;81.60;;;;;;5081275;28;20027;-70
2023/11/23 10:53:33;;;;;;;12.95;7.72;;;6.70;77.60;;;;;;5079806;28;20103;-70
2023/11/23 10:56:07;;;;;;;13.70;8.55;;;6.80;91.80;;;;;;5080868;28;20338;-70
2023/11/23 10:58:38;;;;;;;13.57;7.43;;;6.70;91.50;;;;;;5081169;28;20032;-70
2023/11/23 11:01:10;;;;;;;13.32;8.00;;;7.00;91.00;;;;;;5081187;28;20020;-69
2023/11/23 11:03:38;;;;;;;12.43;7.70;;;7.10;90.80;;;;;;5080887;28;20025;-70
2023/11/23 11:06:13;;;;;;;12.23;7.38;;;7.40;90.10;;;;;;5080665;28;20028;-70
2023/11/23 11:08:47;;;;;;;24.33;8.82;;;7.20;89.90;;;;;;5080677;28;20073;-70
2023/11/23 11:11:20;;;;;;;12.98;8.25;;;7.70;89.90;;;;;;5078969;28;20027;-70
2023/11/23 11:13:46;;;;;;;15.18;8.30;;;7.10;83.80;;;;;;5080255;28;20082;-69
2023/11/23 11:16:14;;;;;;;13.68;8.27;;;7.60;80.20;;;;;;5079709;28;20554;-71
2023/11/23 11:18:40;;;;;;;12.27;8.70;;;7.20;88.40;;;;;;5080186;28;20456;-69
2023/11/23 11:21:16;;;;;;;16.83;9.65;;;7.30;72.40;;;;;;5078712;28;20024;-69
2023/11/23 11:23:44;;;;;;;12.05;7.80;;;7.30;71.60;;;;;;5080408;28;20036;-70
2023/11/23 11:26:11;;;;;;;13.70;7.97;;;7.20;86.60;;;;;;5083234;28;20091;-70
2023/11/23 11:28:38;;;;;;;12.30;6.72;;;7.30;81.40;;;;;;5082861;28;20028;-71
2023/11/23 11:31:13;;;;;;;12.85;8.00;;;7.50;72.40;;;;;;5082961;28;20020;-69
2023/11/23 11:33:39;;;;;;;15.05;9.20;;;;;;;;;;5083013;28;20331;-70
2023/11/23 11:36:10;;;;;;;14.05;8.45;;;7.50;71.20;;;;;;5082995;28;20021;-69
2023/11/23 11:38:36;;;;;;;15.43;9.35;;;7.40;82.10;;;;;;5083688;28;20331;-70
2023/11/23 11:41:06;;;;;;;14.88;8.88;;;7.40;71.10;;;;;;5083555;28;20387;-70
2023/11/23 11:43:33;;;;;;;15.18;9.07;;;7.50;84.20;;;;;;5083882;28;20091;-71
2023/11/23 11:46:00;;;;;;;14.13;8.75;;;7.90;86.30;;;;;;5083520;28;20013;-71
2023/11/23 11:48:25;;;;;;;14.38;8.40;;;7.60;74.20;;;;;;5083528;28;20219;-71
2023/11/23 11:50:58;;;;;;;11.98;7.97;;;8.00;84.20;;;;;;5083447;28;20047;-71
2023/11/23 11:53:24;;;;;;;11.60;7.32;;;8.10;84.10;;;;;;5083475;28;20067;-69
2023/11/23 11:55:53;;;;;;;13.88;8.63;;;7.70;78.50;;;;;;5083468;28;20025;-69
2023/11/23 11:58:20;;;;;;;12.90;8.00;;;8.00;68.90;;;;;;5083607;28;20227;-70
2023/11/23 12:00:47;;;;;;;13.63;8.32;;;;;;;;;;5083555;28;20253;-69
2023/11/23 12:03:12;;;;;;;13.30;8.93;;;7.90;84.20;;;;;;5083664;28;20016;-70
2023/11/23 12:05:42;;;;;;;12.38;7.95;;;8.20;84.20;;;;;;5083468;28;20294;-70
2023/11/23 12:08:09;;;;;;;14.13;8.55;;;;;;;;;;5082151;28;20024;-70
2023/11/23 12:10:42;;;;;;;10.93;7.47;;;8.40;82.70;;;;;;5083589;28;20020;-70
2023/11/23 12:13:14;;;;;;;13.30;8.30;;;8.30;68.50;;;;;;5083393;28;20056;-71
2023/11/23 12:15:41;;;;;;;12.95;7.85;;;8.10;77.70;;;;;;5083222;28;20017;-70
2023/11/23 12:18:08;;;;;;;13.25;9.02;;;8.40;69.20;;;;;;5083236;28;20031;-70
2023/11/23 12:20:37;;;;;;;11.98;7.75;;;9.10;81.20;;;;;;5083334;28;20084;-71
2023/11/23 12:23:04;;;;;;;13.75;8.85;;;8.70;78.50;;;;;;5082960;28;20018;-70
2023/11/23 12:25:34;;;;;;;12.07;8.80;;;9.60;78.00;;;;;;5083057;28;20044;-70
2023/11/23 12:28:02;;;;;;;13.18;9.15;;;9.90;70.30;;;;;;5083064;28;20332;-69
2023/11/23 12:30:31;;;;;;;12.05;9.25;;;12.00;69.80;;;;;;5082757;28;20039;-69
2023/11/23 12:32:57;;;;;;;;;;;12.10;64.30;;;;;;5083346;28;20032;-69
2023/11/23 12:35:24;;;;;;;11.25;8.45;;;13.00;59.70;;;;;;5081339;28;20130;-73
2023/11/23 12:37:51;;;;;;;12.70;9.70;;;13.80;58.50;;;;;;5082608;28;20051;-70
2023/11/23 12:40:17;;;;;;;11.75;9.80;;;14.60;55.80;;;;;;5082660;28;20301;-70
2023/11/23 12:42:43;;;;;;;10.60;9.50;;;15.40;52.10;;;;;;5082564;28;20035;-70
2023/11/23 12:45:09;;;;;;;12.07;9.63;;;14.40;55.30;;;;;;5082613;28;20017;-70
2023/11/23 12:47:39;;;;;;;12.75;9.65;;;12.80;52.30;;;;;;5081126;28;20035;-69
2023/11/23 12:50:10;;;;;;;11.85;9.15;;;;;;;;;;5082154;28;20036;-71
2023/11/23 12:52:37;;;;;;;15.00;9.73;;;;;;;;;;5082562;28;20034;-71
2023/11/23 12:55:05;;;;;;;16.33;10.70;;;10.10;71.00;;;;;;5082295;28;20028;-69
2023/11/23 12:57:31;;;;;;;14.38;9.98;;;10.00;69.10;;;;;;5082392;28;20029;-70
2023/11/23 12:59:56;;;;;;;20.20;10.05;;;9.50;75.40;;;;;;5082302;28;20027;-69
2023/11/23 13:02:22;;;;;;;21.13;11.82;;;9.00;68.00;;;;;;5082270;28;20028;-69